Time;durP1;ratioP1;P1;durP2;ratioP2;P2;SDS_P1;SDS_P2;PMS_P1;PMS_P2;Temp;Humidity;BMP_temperature;BMP_pressure;BME280_temperature;BME280_humidity;BME280_pressure;Samples;Min_cycle;Max_cycle;Signal;HPM_P1;HPM_P2
2021/12/20 00:02:12;;;;;;;3.23;1.00;;;;;;;1.75;97.28;101752.38;4998956;28;20371;-53
2021/12/20 00:04:40;;;;;;;4.20;1.10;;;;;;;1.72;97.97;101759.09;4999482;28;20761;-53
2021/12/20 00:07:07;;;;;;;2.93;1.23;;;;;;;1.76;97.77;101756.75;5000205;28;20231;-54
2021/12/20 00:09:33;;;;;;;4.10;1.13;;;;;;;1.82;96.72;101746.69;4999320;28;20292;-55
2021/12/20 00:12:00;;;;;;;1.57;1.13;;;;;;;1.83;97.46;101747.59;4999731;28;20330;-55
2021/12/20 00:14:26;;;;;;;9.57;1.53;;;;;;;1.75;97.51;101739.41;4999979;28;20264;-56
2021/12/20 00:16:52;;;;;;;2.33;1.20;;;;;;;1.63;98.38;101738.81;5000877;28;20279;-54
2021/12/20 00:19:19;;;;;;;3.03;1.50;;;;;;;1.66;96.78;101749.34;5000410;28;20251;-55
2021/12/20 00:21:45;;;;;;;1.70;1.10;;;;;;;1.69;97.34;101752.09;5001745;28;20248;-56
2021/12/20 00:24:13;;;;;;;2.63;0.93;;;;;;;1.70;97.95;101750.38;5008117;28;20267;-55
2021/12/20 00:26:39;;;;;;;3.43;1.00;;;;;;;1.60;97.57;101755.06;5004056;28;20248;-54
2021/12/20 00:29:05;;;;;;;4.93;1.87;;;;;;;1.72;97.07;101751.31;5001212;28;20275;-55
2021/12/20 00:31:32;;;;;;;4.27;0.97;;;;;;;1.64;97.10;101748.34;5000908;28;20251;-60
2021/12/20 00:33:58;;;;;;;3.77;1.60;;;;;;;1.69;97.33;101754.66;5028886;22;20330;-58
2021/12/20 00:36:26;;;;;;;3.33;1.07;;;;;;;1.63;97.28;101754.34;5019998;28;20259;-57
2021/12/20 00:41:38;;;;;;;2.50;1.00;;;;;;;1.63;97.18;101759.53;5023102;28;20350;-58
2021/12/20 00:44:05;;;;;;;3.03;1.20;;;;;;;1.55;97.81;101760.84;5020524;28;20517;-55
2021/12/20 00:46:31;;;;;;;3.83;0.70;;;;;;;1.54;98.04;101759.03;5018170;28;20266;-56
2021/12/20 00:48:57;;;;;;;3.33;1.00;;;;;;;1.44;98.32;101757.69;5026162;28;20847;-58
2021/12/20 00:51:24;;;;;;;1.77;1.13;;;;;;;1.48;97.82;101761.31;5026008;28;20297;-58
2021/12/20 00:53:50;;;;;;;2.30;1.00;;;;;;;1.57;98.03;101756.59;5021947;28;20320;-58
2021/12/20 00:56:16;;;;;;;1.43;0.90;;;;;;;1.50;97.71;101767.44;5019394;28;20748;-56
2021/12/20 00:58:44;;;;;;;4.13;1.20;;;;;;;1.44;98.58;101773.22;5028725;28;20257;-57
2021/12/20 01:01:10;;;;;;;3.20;1.10;;;;;;;1.41;98.39;101773.94;5020721;28;20283;-57
2021/12/20 01:03:37;;;;;;;2.73;1.07;;;;;;;1.36;99.25;101767.59;5025304;28;20731;-57
2021/12/20 01:06:04;;;;;;;1.93;1.40;;;;;;;1.29;98.57;101773.25;5027680;28;20281;-57
2021/12/20 01:08:34;;;;;;;2.87;1.67;;;;;;;1.42;98.80;101775.69;5020944;28;20294;-57
2021/12/20 01:11:01;;;;;;;1.37;1.00;;;;;;;1.43;98.65;101774.00;5023621;28;20764;-57
2021/12/20 01:13:30;;;;;;;2.73;1.17;;;;;;;1.33;97.87;101775.19;5019684;28;20535;-58
2021/12/20 01:16:01;;;;;;;5.30;0.97;;;;;;;1.27;98.43;101780.06;5014978;28;20264;-57
2021/12/20 01:18:28;;;;;;;2.90;1.37;;;;;;;1.20;98.95;101775.38;5027919;28;20247;-57
2021/12/20 01:20:54;;;;;;;3.20;1.40;;;;;;;1.31;98.98;101782.00;5019974;28;20580;-57
2021/12/20 01:23:21;;;;;;;1.10;0.90;;;;;;;1.29;99.15;101788.78;5016990;28;20244;-57
2021/12/20 01:25:48;;;;;;;1.53;0.93;;;;;;;1.28;99.20;101784.44;5020490;28;20358;-56
2021/12/20 01:28:15;;;;;;;2.37;1.13;;;;;;;1.35;98.05;101783.94;5023664;28;20263;-57
2021/12/20 01:30:42;;;;;;;3.17;0.90;;;;;;;1.26;98.94;101803.25;5040152;28;20251;-55
2021/12/20 01:33:12;;;;;;;1.83;0.93;;;;;;;1.34;98.19;101787.34;5026847;28;20247;-57
2021/12/20 01:35:39;;;;;;;7.50;1.10;;;;;;;1.29;98.25;101788.78;5026595;28;20228;-57
2021/12/20 01:38:06;;;;;;;1.57;1.30;;;;;;;1.17;98.66;101807.13;5030102;28;20234;-57
2021/12/20 01:40:34;;;;;;;2.27;2.10;;;;;;;1.23;99.28;101798.84;5020647;28;20238;-57
2021/12/20 01:43:01;;;;;;;3.57;1.03;;;;;;;1.27;99.43;101800.78;5024530;28;20286;-57
2021/12/20 01:45:28;;;;;;;3.10;1.17;;;;;;;1.25;99.39;101792.03;5023248;28;20931;-56
2021/12/20 01:48:03;;;;;;;1.97;1.10;;;;;;;1.24;98.88;101803.19;5020956;28;20231;-57
2021/12/20 01:51:02;;;;;;;2.57;0.90;;;;;;;1.31;98.30;101812.16;5021553;28;20860;-55
2021/12/20 01:53:28;;;;;;;0.67;0.67;;;;;;;1.22;98.74;101815.13;5025662;28;20242;-55
2021/12/20 01:55:56;;;;;;;0.53;0.53;;;;;;;1.15;98.92;101815.63;5019717;28;20274;-56
2021/12/20 01:58:23;;;;;;;4.33;1.23;;;;;;;1.21;98.17;101810.78;5026111;28;20282;-56
2021/12/20 02:03:48;;;;;;;1.20;0.90;;;;;;;1.29;97.75;101808.59;4961598;28;20793;-55
2021/12/20 02:06:22;;;;;;;1.17;0.80;;;;;;;1.25;97.88;101806.66;5008473;28;20236;-56
2021/12/20 02:08:49;;;;;;;3.70;0.97;;;;;;;1.18;97.72;101800.25;5024272;28;20224;-55
2021/12/20 02:11:19;;;;;;;1.87;1.00;;;;;;;1.24;98.69;101800.59;5018181;28;20309;-55
2021/12/20 02:13:45;;;;;;;2.90;1.00;;;;;;;1.23;98.47;101801.41;5022934;28;20308;-57
2021/12/20 02:16:12;;;;;;;2.47;1.13;;;;;;;1.15;98.70;101805.25;5025841;28;20792;-56
2021/12/20 02:18:39;;;;;;;5.47;0.87;;;;;;;1.21;98.86;101797.84;5026343;28;20240;-57
2021/12/20 02:21:07;;;;;;;1.67;0.73;;;;;;;1.06;99.80;101797.03;5022198;28;20297;-55
2021/12/20 02:23:33;;;;;;;2.93;0.97;;;;;;;1.07;99.20;101799.69;5019990;28;20393;-57
2021/12/20 02:26:00;;;;;;;1.43;0.80;;;;;;;1.06;99.18;101804.78;5022860;28;20774;-57
2021/12/20 02:28:29;;;;;;;1.53;0.87;;;;;;;1.16;98.25;101791.56;5022308;28;20240;-56
2021/12/20 02:36:55;;;;;;;2.10;1.17;;;;;;;1.01;99.25;101789.00;5010747;28;20327;-57
2021/12/20 02:39:20;;;;;;;1.33;0.93;;;;;;;1.02;98.84;101789.88;5015635;28;20242;-57
2021/12/20 02:42:15;;;;;;;0.83;0.60;;;;;;;1.06;100.00;101794.44;5019880;28;20225;-56
2021/12/20 02:48:03;;;;;;;5.27;1.13;;;;;;;1.07;99.09;101798.78;5018162;28;20343;-55
2021/12/20 02:50:29;;;;;;;5.57;0.80;;;;;;;1.03;99.64;101787.41;5017113;28;20284;-57
2021/12/20 02:52:57;;;;;;;4.00;0.90;;;;;;;0.88;100.00;101795.22;5014833;28;20285;-57
2021/12/20 02:55:23;;;;;;;2.53;1.30;;;;;;;0.85;100.00;101802.78;5023273;28;20236;-57
2021/12/20 02:57:50;;;;;;;3.83;1.03;;;;;;;0.86;100.00;101799.41;5017817;28;20274;-57
2021/12/20 03:00:16;;;;;;;2.30;1.37;;;;;;;1.03;99.78;101804.63;5021883;28;20815;-57
2021/12/20 03:02:43;;;;;;;1.77;0.77;;;;;;;1.06;98.98;101802.19;5022740;28;20256;-57
2021/12/20 03:05:11;;;;;;;1.67;1.13;;;;;;;0.89;99.67;101796.97;5022974;28;20263;-57
2021/12/20 03:07:44;;;;;;;1.90;0.87;;;;;;;0.97;99.52;101799.97;5025238;28;20251;-57
2021/12/20 03:10:12;;;;;;;5.07;0.90;;;;;;;0.98;99.71;101818.97;5025127;28;20735;-54
2021/12/20 03:12:39;;;;;;;2.93;1.27;;;;;;;0.95;99.17;101817.13;5016375;28;20235;-58
2021/12/20 03:15:12;;;;;;;5.30;1.30;;;;;;;1.02;99.68;101807.97;5018835;28;20287;-57
2021/12/20 03:17:38;;;;;;;3.67;1.30;;;;;;;1.09;98.92;101810.09;5026447;28;20333;-57
2021/12/20 03:20:05;;;;;;;3.17;0.70;;;;;;;1.11;99.13;101803.31;5018299;28;20247;-56
2021/12/20 03:22:32;;;;;;;4.97;1.23;;;;;;;0.97;99.57;101809.44;5016072;28;20256;-56
2021/12/20 03:24:58;;;;;;;2.13;1.10;;;;;;;1.06;98.93;101810.84;5021692;28;20264;-57
2021/12/20 03:27:26;;;;;;;1.07;0.90;;;;;;;1.07;99.52;101822.06;5014207;28;20713;-57
2021/12/20 03:29:52;;;;;;;7.23;1.63;;;;;;;1.04;99.95;101816.72;5023564;28;20227;-57
2021/12/20 03:32:18;;;;;;;4.17;1.20;;;;;;;0.95;100.00;101817.13;5021254;28;20730;-56
2021/12/20 03:34:45;;;;;;;6.33;1.63;;;;;;;1.00;99.94;101819.97;5025636;28;20266;-55
2021/12/20 03:37:11;;;;;;;3.93;1.17;;;;;;;1.11;99.74;101813.66;5024871;28;20259;-57
2021/12/20 03:39:37;;;;;;;5.10;1.33;;;;;;;1.06;100.00;101820.31;5022494;28;20258;-57
2021/12/20 03:42:04;;;;;;;3.27;0.90;;;;;;;1.08;100.00;101809.22;5020890;28;20247;-55
2021/12/20 03:44:36;;;;;;;5.03;1.13;;;;;;;1.06;100.00;101807.38;5025026;28;20235;-57
2021/12/20 03:47:03;;;;;;;2.87;0.90;;;;;;;0.98;100.00;101811.22;5019936;28;20229;-58
2021/12/20 03:49:30;;;;;;;2.63;1.10;;;;;;;0.95;100.00;101828.34;5019150;28;20610;-57
2021/12/20 03:51:56;;;;;;;5.20;0.90;;;;;;;1.05;100.00;101827.13;5018760;28;20275;-57
2021/12/20 03:54:22;;;;;;;4.20;3.77;;;;;;;0.98;100.00;101816.38;5018651;28;20801;-56
2021/12/20 03:56:49;;;;;;;2.90;1.20;;;;;;;0.91;100.00;101821.25;5017573;28;20270;-55
2021/12/20 03:59:15;;;;;;;3.10;1.17;;;;;;;0.76;100.00;101819.47;5017780;28;20711;-57
2021/12/20 04:01:43;;;;;;;3.50;1.40;;;;;;;0.87;100.00;101819.25;5016902;28;20304;-56
2021/12/20 04:04:09;;;;;;;2.57;1.20;;;;;;;0.81;100.00;101818.03;5018573;28;20243;-56
2021/12/20 04:06:36;;;;;;;1.63;1.33;;;;;;;0.82;100.00;101812.06;5011311;28;20251;-58
2021/12/20 04:09:03;;;;;;;2.67;1.20;;;;;;;0.82;100.00;101820.72;5023307;28;20784;-57
2021/12/20 04:11:29;;;;;;;3.97;1.50;;;;;;;0.89;100.00;101829.72;5021156;28;20762;-56
2021/12/20 04:13:56;;;;;;;6.90;1.73;;;;;;;0.78;100.00;101829.09;5022988;28;20247;-58
2021/12/20 04:16:23;;;;;;;7.43;1.30;;;;;;;0.79;100.00;101825.72;5028850;28;20232;-56
2021/12/20 04:18:50;;;;;;;2.50;1.03;;;;;;;0.71;100.00;101829.56;5026020;28;20316;-57
2021/12/20 04:21:17;;;;;;;3.47;1.00;;;;;;;0.68;100.00;101831.97;5021632;28;20263;-55
2021/12/20 04:23:43;;;;;;;5.80;1.73;;;;;;;0.67;100.00;101835.38;5022428;28;20240;-55
2021/12/20 04:26:09;;;;;;;3.03;1.37;;;;;;;0.71;100.00;101832.16;5019291;28;20254;-55
2021/12/20 04:28:36;;;;;;;2.83;0.90;;;;;;;0.75;100.00;101834.09;5023224;28;20553;-56
2021/12/20 04:31:02;;;;;;;1.30;0.90;;;;;;;0.69;100.00;101833.75;5026630;28;20278;-55
2021/12/20 04:33:28;;;;;;;2.77;1.23;;;;;;;0.72;100.00;101823.59;5016001;28;20235;-55
2021/12/20 04:35:56;;;;;;;1.03;0.93;;;;;;;0.60;100.00;101834.13;5023247;28;20246;-57
2021/12/20 04:38:25;;;;;;;1.13;1.03;;;;;;;0.65;100.00;101831.81;5022156;28;20256;-54
2021/12/20 04:40:51;;;;;;;2.83;0.97;;;;;;;0.62;100.00;101835.09;5013783;28;20610;-56
2021/12/20 04:43:17;;;;;;;1.47;1.10;;;;;;;0.62;100.00;101847.13;5016136;28;20648;-55
2021/12/20 04:45:44;;;;;;;1.30;1.00;;;;;;;0.65;100.00;101839.56;5021275;28;20232;-56
2021/12/20 04:48:10;;;;;;;3.33;1.27;;;;;;;0.63;100.00;101854.06;5020937;28;20698;-56
2021/12/20 04:50:37;;;;;;;8.27;1.30;;;;;;;0.65;100.00;101840.44;5018978;28;20669;-56
2021/12/20 04:53:04;;;;;;;1.97;1.37;;;;;;;0.60;100.00;101841.00;5019710;28;20248;-56
2021/12/20 04:55:31;;;;;;;5.70;1.43;;;;;;;0.56;100.00;101836.44;5021388;28;20660;-54
2021/12/20 04:57:58;;;;;;;5.57;1.07;;;;;;;0.65;100.00;101832.69;5021646;28;20255;-57
2021/12/20 05:00:26;;;;;;;2.97;1.63;;;;;;;0.62;100.00;101837.66;5022498;28;20224;-56
2021/12/20 05:02:53;;;;;;;3.43;1.60;;;;;;;0.50;100.00;101836.09;5021516;28;20248;-57
2021/12/20 05:05:21;;;;;;;3.57;1.30;;;;;;;0.48;100.00;101839.47;5023175;28;20331;-57
2021/12/20 05:07:47;;;;;;;5.53;1.40;;;;;;;0.51;100.00;101833.59;5022363;28;20705;-57
2021/12/20 05:10:26;;;;;;;1.40;1.00;;;;;;;0.53;100.00;101838.84;5020855;28;20233;-56
2021/12/20 05:12:53;;;;;;;4.00;1.47;;;;;;;0.70;100.00;101839.03;5020730;28;20266;-57
2021/12/20 05:15:19;;;;;;;4.10;1.50;;;;;;;0.57;100.00;101845.97;5020215;28;20981;-57
2021/12/20 05:17:46;;;;;;;7.03;1.90;;;;;;;0.64;100.00;101850.69;5015849;28;20731;-57
2021/12/20 05:20:12;;;;;;;5.40;1.97;;;;;;;0.53;100.00;101851.75;5023310;28;20223;-57
2021/12/20 05:22:39;;;;;;;3.00;1.30;;;;;;;0.63;100.00;101854.06;5020308;28;20254;-56
2021/12/20 05:25:06;;;;;;;3.87;1.33;;;;;;;0.67;100.00;101848.28;5018318;28;20259;-56
2021/12/20 05:27:33;;;;;;;5.60;2.07;;;;;;;0.67;100.00;101843.13;5024719;28;20248;-56
2021/12/20 05:30:00;;;;;;;4.00;1.47;;;;;;;0.67;100.00;101858.63;5025804;28;20782;-56
2021/12/20 05:32:26;;;;;;;4.33;1.20;;;;;;;0.70;100.00;101845.84;5024737;28;20227;-57
2021/12/20 05:34:53;;;;;;;1.67;1.30;;;;;;;0.77;100.00;101850.56;5022769;28;20229;-57
2021/12/20 05:37:19;;;;;;;3.73;1.50;;;;;;;0.81;100.00;101861.97;5023778;28;20375;-56
2021/12/20 05:39:45;;;;;;;6.17;1.97;;;;;;;0.89;100.00;101858.16;5027136;28;20332;-56
2021/12/20 05:42:12;;;;;;;3.67;1.47;;;;;;;0.90;100.00;101857.34;5025561;28;20242;-56
2021/12/20 05:44:40;;;;;;;4.60;1.83;;;;;;;0.85;100.00;101862.25;5026024;28;20900;-57
2021/12/20 05:47:06;;;;;;;1.37;1.13;;;;;;;0.86;100.00;101868.31;5021639;28;20317;-57
2021/12/20 05:49:33;;;;;;;4.67;1.40;;;;;;;0.95;100.00;101863.66;5022728;28;20248;-57
2021/12/20 05:51:59;;;;;;;3.67;1.40;;;;;;;0.99;100.00;101862.16;5025895;28;20264;-56
2021/12/20 05:54:26;;;;;;;5.10;1.10;;;;;;;0.88;100.00;101875.34;5025940;28;20656;-57
2021/12/20 05:56:52;;;;;;;7.70;1.33;;;;;;;0.85;100.00;101866.53;5021727;28;20307;-57
2021/12/20 05:59:18;;;;;;;3.70;1.37;;;;;;;0.89;100.00;101879.72;5022719;28;20260;-53
2021/12/20 06:01:46;;;;;;;2.60;1.10;;;;;;;0.83;100.00;101879.34;5021106;28;20239;-56
2021/12/20 06:04:12;;;;;;;7.53;1.53;;;;;;;0.95;100.00;101887.81;5024471;28;20681;-56
2021/12/20 06:06:39;;;;;;;2.83;1.10;;;;;;;0.95;100.00;101889.53;5027703;28;20237;-57
2021/12/20 06:09:05;;;;;;;6.20;1.50;;;;;;;0.82;100.00;101887.94;5025106;28;20704;-54
2021/12/20 06:11:31;;;;;;;3.03;1.10;;;;;;;0.86;100.00;101889.00;5030257;28;20267;-55
2021/12/20 06:13:58;;;;;;;1.90;1.10;;;;;;;0.82;100.00;101892.22;5025861;28;20239;-57
2021/12/20 06:16:25;;;;;;;1.70;0.93;;;;;;;0.80;100.00;101892.09;5027084;28;20325;-57
2021/12/20 06:18:53;;;;;;;4.57;1.47;;;;;;;0.84;100.00;101886.34;5024338;28;20258;-57
2021/12/20 06:21:20;;;;;;;1.60;1.50;;;;;;;0.81;100.00;101888.75;5023249;28;20241;-57
2021/12/20 06:23:46;;;;;;;5.40;1.47;;;;;;;0.76;100.00;101895.31;5022908;28;20239;-57
2021/12/20 06:26:12;;;;;;;6.70;1.60;;;;;;;0.82;100.00;101897.38;5026816;28;20239;-56
2021/12/20 06:28:39;;;;;;;4.87;2.13;;;;;;;0.83;100.00;101884.53;5025937;28;20644;-56
2021/12/20 06:31:05;;;;;;;7.83;2.20;;;;;;;0.84;100.00;101886.34;5026106;28;20799;-56
2021/12/20 06:33:31;;;;;;;1.23;1.13;;;;;;;0.86;100.00;101889.88;5023583;28;20306;-55
2021/12/20 06:35:59;;;;;;;4.30;1.53;;;;;;;0.98;100.00;101893.94;5020169;22;20231;-57
2021/12/20 06:38:26;;;;;;;5.20;1.47;;;;;;;0.98;100.00;101896.53;5002987;28;20279;-56
2021/12/20 06:40:53;;;;;;;3.13;1.47;;;;;;;1.00;100.00;101894.94;5012156;28;20227;-56
2021/12/20 06:43:20;;;;;;;3.30;1.17;;;;;;;0.87;100.00;101896.81;5004831;28;20252;-55
2021/12/20 06:45:48;;;;;;;5.47;1.80;;;;;;;0.90;100.00;101894.41;5005946;28;20760;-55
2021/12/20 06:48:14;;;;;;;2.90;1.60;;;;;;;0.87;100.00;101899.41;5002909;28;20685;-55
2021/12/20 06:50:40;;;;;;;5.03;1.53;;;;;;;1.04;100.00;101902.94;4999017;28;20240;-55
2021/12/20 06:53:08;;;;;;;2.67;1.93;;;;;;;1.11;100.00;101899.00;5001651;28;20283;-57
2021/12/20 06:55:35;;;;;;;3.80;1.40;;;;;;;1.04;100.00;101900.38;5003017;28;20247;-55
2021/12/20 06:58:01;;;;;;;4.30;1.43;;;;;;;1.09;100.00;101913.53;5007716;28;20740;-55
2021/12/20 07:00:28;;;;;;;5.47;1.57;;;;;;;0.97;100.00;101911.16;4998332;28;20237;-57
2021/12/20 07:02:54;;;;;;;4.53;1.57;;;;;;;0.95;100.00;101921.44;5005029;28;20646;-56
2021/12/20 07:05:21;;;;;;;5.67;2.17;;;;;;;0.95;100.00;101916.25;5008135;28;20276;-54
2021/12/20 07:07:47;;;;;;;4.20;1.40;;;;;;;1.04;100.00;101917.56;5002962;28;20221;-57
2021/12/20 07:10:15;;;;;;;1.83;1.43;;;;;;;0.86;100.00;101915.72;5005816;28;20310;-54
2021/12/20 07:12:42;;;;;;;8.03;1.30;;;;;;;0.82;100.00;101918.94;5006195;28;20236;-56
2021/12/20 07:15:11;;;;;;;5.10;1.47;;;;;;;0.94;100.00;101919.63;5006013;28;20248;-55
2021/12/20 07:17:38;;;;;;;4.97;1.40;;;;;;;0.82;100.00;101934.44;5006050;28;21467;-56
2021/12/20 07:20:05;;;;;;;10.03;3.63;;;;;;;0.91;100.00;101927.25;5006537;28;20236;-58
2021/12/20 07:22:32;;;;;;;84.47;56.67;;;;;;;0.90;100.00;101932.31;5008935;28;20235;-58
2021/12/20 07:24:59;;;;;;;88.73;60.50;;;;;;;0.96;100.00;101927.50;5007688;28;20244;-58
2021/12/20 07:27:27;;;;;;;70.70;44.10;;;;;;;0.95;100.00;101936.94;5003312;28;20226;-57
2021/12/20 07:29:54;;;;;;;103.77;67.97;;;;;;;0.91;100.00;101934.06;5010753;28;20236;-59
2021/12/20 07:32:20;;;;;;;81.17;56.27;;;;;;;0.83;100.00;101940.50;5010458;28;20249;-57
2021/12/20 07:34:46;;;;;;;65.97;37.40;;;;;;;0.81;100.00;101943.03;5006587;28;20289;-57
2021/12/20 07:37:13;;;;;;;40.80;27.50;;;;;;;0.89;100.00;101946.94;5008136;28;20228;-58
2021/12/20 07:39:39;;;;;;;51.20;34.70;;;;;;;0.84;100.00;101953.53;5006179;28;20275;-55
2021/12/20 07:42:07;;;;;;;32.97;23.90;;;;;;;0.90;100.00;101947.81;5011684;28;20237;-54
2021/12/20 07:44:34;;;;;;;58.60;36.57;;;;;;;0.87;100.00;101964.03;5008607;28;20380;-55
2021/12/20 07:47:02;;;;;;;56.47;37.87;;;;;;;0.87;100.00;101964.03;5011288;28;20251;-57
2021/12/20 07:49:29;;;;;;;38.07;24.07;;;;;;;0.89;100.00;101962.44;5013915;28;20234;-57
2021/12/20 07:51:55;;;;;;;28.63;17.27;;;;;;;1.01;100.00;101961.34;5014005;28;20290;-57
2021/12/20 07:54:21;;;;;;;22.80;13.30;;;;;;;1.15;100.00;101966.50;4999997;28;20231;-58
2021/12/20 07:56:48;;;;;;;13.97;9.13;;;;;;;1.06;100.00;101966.00;5002832;28;20299;-58
2021/12/20 07:59:14;;;;;;;11.13;8.80;;;;;;;0.86;100.00;101977.78;5003477;28;20324;-57
2021/12/20 08:01:42;;;;;;;12.30;8.13;;;;;;;0.90;100.00;101974.56;5005248;28;20764;-58
2021/12/20 08:04:08;;;;;;;10.10;4.27;;;;;;;0.95;100.00;101967.97;5004601;28;20266;-59
2021/12/20 08:06:35;;;;;;;7.47;2.50;;;;;;;0.92;100.00;101980.72;5004571;28;20290;-58
2021/12/20 08:09:01;;;;;;;5.77;2.90;;;;;;;1.07;100.00;101977.22;5007464;28;20237;-58
2021/12/20 08:11:28;;;;;;;8.53;3.33;;;;;;;1.02;100.00;101989.00;5006103;28;20239;-57
2021/12/20 08:13:54;;;;;;;6.57;2.30;;;;;;;1.09;100.00;101984.28;5001685;28;20333;-57
2021/12/20 08:16:21;;;;;;;4.63;2.40;;;;;;;1.05;100.00;101984.00;5004233;28;20259;-58
2021/12/20 08:18:48;;;;;;;3.50;2.00;;;;;;;1.02;100.00;101986.41;5003220;28;20253;-57
2021/12/20 08:21:15;;;;;;;2.50;1.70;;;;;;;1.15;100.00;101987.19;5004171;28;20324;-57
2021/12/20 08:23:43;;;;;;;5.50;2.07;;;;;;;1.10;100.00;101982.59;5004390;28;20283;-56
2021/12/20 08:26:10;;;;;;;3.27;2.10;;;;;;;1.18;100.00;101991.66;5003998;28;20324;-57
2021/12/20 08:28:36;;;;;;;3.87;1.90;;;;;;;1.19;100.00;101993.44;5003824;28;20287;-58
2021/12/20 08:31:03;;;;;;;4.13;1.83;;;;;;;1.30;100.00;101987.19;5005866;28;20274;-59
2021/12/20 08:33:29;;;;;;;6.47;2.13;;;;;;;1.31;100.00;101982.91;5007501;28;20270;-57
2021/12/20 08:35:57;;;;;;;2.90;2.27;;;;;;;1.37;100.00;101998.75;5004009;28;20269;-57
2021/12/20 08:38:24;;;;;;;2.63;1.50;;;;;;;1.34;100.00;101999.50;5005902;28;20662;-57
2021/12/20 08:40:50;;;;;;;4.10;1.53;;;;;;;1.51;100.00;102002.13;5008000;28;20286;-58
2021/12/20 08:43:17;;;;;;;2.33;1.67;;;;;;;1.52;100.00;102014.28;5008784;28;20236;-58
2021/12/20 08:45:43;;;;;;;8.23;2.00;;;;;;;1.55;100.00;102017.06;5005094;28;20251;-58
2021/12/20 08:48:10;;;;;;;5.27;2.17;;;;;;;1.54;99.50;102020.41;5006019;28;20729;-57
2021/12/20 08:50:36;;;;;;;3.97;1.63;;;;;;;1.55;100.00;102014.47;5005172;28;20236;-57
2021/12/20 08:53:04;;;;;;;2.67;1.37;;;;;;;1.56;100.00;102016.22;4992853;28;20314;-57
2021/12/20 08:55:31;;;;;;;4.13;1.07;;;;;;;1.69;100.00;102012.66;5008450;28;20263;-56
2021/12/20 08:57:57;;;;;;;4.60;2.57;;;;;;;1.79;99.02;102014.91;5002914;28;20287;-58
2021/12/20 09:00:26;;;;;;;5.80;2.10;;;;;;;1.78;99.23;102015.72;5003451;28;20299;-58
2021/12/20 09:02:52;;;;;;;2.90;1.60;;;;;;;1.74;98.47;102022.44;5009859;28;20251;-58
2021/12/20 09:05:21;;;;;;;2.53;1.30;;;;;;;1.75;99.22;102019.03;5003416;28;20310;-58
2021/12/20 09:07:47;;;;;;;9.00;2.17;;;;;;;1.63;100.00;102023.53;5010122;28;20235;-57
2021/12/20 09:10:16;;;;;;;3.43;1.97;;;;;;;1.76;99.59;102027.72;5009589;28;20234;-58
2021/12/20 09:12:44;;;;;;;3.73;2.70;;;;;;;1.76;99.14;102030.31;4997612;28;20252;-58
2021/12/20 09:15:16;;;;;;;4.87;1.43;;;;;;;1.74;98.81;102027.59;5000641;28;20329;-57
2021/12/20 09:17:43;;;;;;;4.60;2.40;;;;;;;1.80;99.29;102032.25;4999344;28;20235;-57
2021/12/20 09:20:11;;;;;;;4.27;1.60;;;;;;;1.82;98.78;102033.19;5002221;28;20747;-57
2021/12/20 09:22:48;;;;;;;5.73;2.13;;;;;;;1.97;98.07;102036.66;5000317;28;20372;-56
2021/12/20 09:25:16;;;;;;;2.33;1.57;;;;;;;1.89;98.70;102033.63;5005214;28;20270;-57
2021/12/20 09:27:43;;;;;;;3.97;1.87;;;;;;;1.90;98.95;102035.44;5020032;28;20236;-58
2021/12/20 09:30:10;;;;;;;2.73;1.80;;;;;;;1.97;98.35;102035.78;5005504;28;20244;-58
2021/12/20 09:32:36;;;;;;;4.57;2.17;;;;;;;1.89;98.26;102048.28;5007983;28;20295;-57
2021/12/20 09:35:03;;;;;;;5.40;1.90;;;;;;;1.89;98.23;102046.56;5005806;28;20828;-60
2021/12/20 09:37:29;;;;;;;1.93;1.57;;;;;;;2.00;98.47;102052.38;4994296;28;20244;-57
2021/12/20 09:39:56;;;;;;;10.60;2.30;;;;;;;1.96;98.87;102055.56;5000913;28;20250;-57
2021/12/20 09:42:23;;;;;;;5.53;1.67;;;;;;;1.97;97.92;102061.66;5008799;28;20240;-57
2021/12/20 09:44:50;;;;;;;3.40;1.47;;;;;;;2.00;98.61;102059.22;5002258;28;20311;-57
2021/12/20 09:47:17;;;;;;;2.23;1.50;;;;;;;2.09;98.35;102062.31;5001380;28;20244;-58
2021/12/20 09:49:43;;;;;;;4.50;1.60;;;;;;;2.13;98.49;102061.69;5006221;28;20303;-58
2021/12/20 09:52:10;;;;;;;4.63;2.00;;;;;;;2.15;98.65;102060.97;5002650;28;20243;-57
2021/12/20 09:54:37;;;;;;;2.90;1.47;;;;;;;2.19;97.86;102059.44;4999280;28;20306;-55
2021/12/20 09:57:06;;;;;;;3.97;1.83;;;;;;;2.32;96.63;102071.38;5005318;28;20236;-58
2021/12/20 09:59:37;;;;;;;4.20;1.70;;;;;;;2.31;97.16;102064.38;4998831;28;20252;-55
2021/12/20 10:02:07;;;;;;;2.77;1.27;;;;;;;2.35;97.90;102062.06;4999933;28;20290;-55
2021/12/20 10:04:33;;;;;;;7.33;1.53;;;;;;;2.30;96.58;102068.66;4997314;28;20705;-56
2021/12/20 10:07:01;;;;;;;2.47;1.37;;;;;;;2.31;96.46;102066.97;5008962;28;20747;-55
2021/12/20 10:09:32;;;;;;;2.47;1.80;;;;;;;2.22;96.97;102069.09;5006290;28;20239;-56
2021/12/20 10:12:21;;;;;;;12.40;2.97;;;;;;;2.33;96.57;102074.03;5004559;28;20262;-55
2021/12/20 10:15:00;;;;;;;2.83;1.20;;;;;;;2.41;95.41;102069.25;4994161;28;20341;-55
2021/12/20 10:17:29;;;;;;;6.83;2.37;;;;;;;2.40;97.11;102075.25;5004587;28;20237;-54
2021/12/20 10:19:56;;;;;;;4.83;3.17;;;;;;;2.34;97.41;102072.31;4990693;28;20252;-57
2021/12/20 10:22:28;;;;;;;14.73;8.80;;;;;;;2.53;96.68;102069.91;4997376;28;20262;-57
2021/12/20 10:24:56;;;;;;;11.53;4.07;;;;;;;2.56;95.96;102077.84;5002480;28;20240;-55
2021/12/20 10:27:30;;;;;;;7.10;4.60;;;;;;;2.52;96.02;102072.41;5003897;28;20243;-56
2021/12/20 10:29:58;;;;;;;22.43;14.07;;;;;;;2.59;96.03;102079.69;4996942;28;20265;-56
2021/12/20 10:32:45;;;;;;;32.90;24.07;;;;;;;2.60;96.87;102084.97;4999619;28;20237;-56
2021/12/20 10:35:28;;;;;;;35.83;24.43;;;;;;;2.75;95.29;102079.69;4993513;28;20244;-56
2021/12/20 10:37:57;;;;;;;35.10;22.93;;;;;;;2.73;94.59;102080.44;4997682;28;20248;-57
2021/12/20 10:40:24;;;;;;;29.43;19.23;;;;;;;2.67;94.74;102086.19;5004598;28;20251;-57
2021/12/20 10:42:52;;;;;;;28.70;17.70;;;;;;;2.78;94.08;102087.66;5005527;28;20877;-59
2021/12/20 10:45:21;;;;;;;37.60;27.70;;;;;;;2.74;94.62;102083.13;5001473;28;20755;-57
2021/12/20 10:47:50;;;;;;;27.67;17.53;;;;;;;2.82;94.48;102084.41;5000827;28;20264;-57
2021/12/20 10:50:21;;;;;;;16.53;10.27;;;;;;;2.80;93.99;102079.94;5001570;28;20259;-57
2021/12/20 10:52:48;;;;;;;18.73;13.45;;;;;;;2.74;94.76;102072.75;5002776;28;20175;-56
2021/12/20 10:55:15;;;;;;;15.80;9.07;;;;;;;2.73;94.52;102083.00;4994041;28;20243;-54
2021/12/20 10:57:41;;;;;;;20.33;14.37;;;;;;;2.66;94.57;102084.41;5005207;28;20307;-55
2021/12/20 11:00:15;;;;;;;12.63;6.57;;;;;;;2.73;94.68;102081.31;5008574;28;20248;-55
2021/12/20 11:03:24;;;;;;;12.60;5.40;;;;;;;2.80;94.23;102087.72;5005811;28;20242;-56
2021/12/20 11:06:13;;;;;;;6.50;4.17;;;;;;;2.73;95.47;102091.69;4999868;28;20748;-55
2021/12/20 11:11:24;;;;;;;8.30;4.30;;;;;;;2.84;95.52;102090.56;5006301;28;20244;-54
2021/12/20 11:13:51;;;;;;;12.67;6.00;;;;;;;2.84;95.50;102090.56;5005528;28;20650;-56
2021/12/20 11:16:27;;;;;;;55.40;30.47;;;;;;;2.98;94.60;102087.78;5005058;28;20640;-57
2021/12/20 11:19:14;;;;;;;36.90;22.87;;;;;;;2.98;94.08;102086.06;5010547;28;20724;-56
2021/12/20 11:21:50;;;;;;;52.57;30.90;;;;;;;2.84;94.90;102081.88;5005086;28;20240;-56
2021/12/20 11:24:18;;;;;;;46.67;26.53;;;;;;;3.01;94.59;102082.75;5003320;28;20252;-57
2021/12/20 11:26:44;;;;;;;31.50;18.50;;;;;;;3.00;94.32;102080.97;5006496;28;20690;-56
2021/12/20 11:29:11;;;;;;;26.37;16.80;;;;;;;3.05;95.26;102075.22;5007052;28;20240;-56
2021/12/20 11:31:38;;;;;;;12.40;8.60;;;;;;;3.13;93.93;102078.19;5001457;28;20237;-57
2021/12/20 11:34:06;;;;;;;16.80;9.17;;;;;;;3.06;94.70;102073.50;5002818;28;20657;-57
2021/12/20 11:36:34;;;;;;;8.23;5.03;;;;;;;3.17;94.31;102080.13;5004009;28;20262;-56
2021/12/20 11:39:02;;;;;;;6.23;3.40;;;;;;;3.04;94.63;102083.78;5000720;28;20255;-57
2021/12/20 11:41:30;;;;;;;4.67;3.53;;;;;;;3.08;94.85;102084.84;5001891;28;20238;-56
2021/12/20 11:43:57;;;;;;;16.13;10.53;;;;;;;3.08;95.77;102077.06;5002273;28;20841;-56
2021/12/20 11:46:26;;;;;;;20.53;10.70;;;;;;;3.01;95.46;102077.56;5002533;28;20697;-56
2021/12/20 11:48:53;;;;;;;11.70;5.80;;;;;;;3.03;95.08;102079.44;4999790;28;20241;-55